Tropical Cyclones
[Index]
Main Index Home Page Stock Weather Photos Extreme Storms Discussion Storm News and Storm Chasing Reports Tropical Cyclones / Hurricanes / Typhoons Weather Data and Links Wild Fires / Bushfires Weather Observation Techniques Weather Picture Catalogue Tornado Pictures and Reports Stock Video Footage and DVDs for sale
Season 1981-1982 Tropical Cyclone HETTIE Track Map
Season 1981-1982 Summaries: [BoM-AU] [JTWC-AU] [JTWC-SIO] [JTWC-SPAC] [JTWC-SH]
<<- Previous TC | JTWC 1981-1982 Season | Next TC ->>

click for intensity scale information  Lat/long Grid: Show Hide

 Date Labels: Show Hide

Joint Typhoon Warning Centre Cyclone Data

Name: HETTIE

25 Jan 1982 18:00 UTC to 01 Feb 1982 18:00 UTC

    date/time    lat    long     hPa   cat  kts
1982-01-25 18   16.9   173.2                  25          
1982-01-26 00   17.1   173.2                  25          
1982-01-26 06   17.3   173.3                  30          
1982-01-26 12   17.6   173.5                  35          
1982-01-26 18   17.9   173.7            1     40          
1982-01-27 00   18.2   173.7            1     45          
1982-01-27 06   18.4   173.8            1     50          
1982-01-27 12   18.6   174.1            2     55          
1982-01-27 18   18.7   174.4            2     60          
1982-01-28 00   18.7   174.7            2     65          
1982-01-28 06   18.7   175.0            2     70          
1982-01-28 12   18.7   175.2            2     70          
1982-01-28 18   18.7   175.3            2     65          
1982-01-29 00   18.7   175.5            2     65          
1982-01-29 06   18.8   175.7            2     65          
1982-01-29 12   18.9   175.8            2     65          
1982-01-29 18   19.1   175.9            2     65          
1982-01-30 00   19.3   176.0            2     60          
1982-01-30 06   19.6   176.1            2     55          
1982-01-30 12   20.0   176.3            2     55          
1982-01-30 18   20.8   176.7            1     50          
1982-01-31 00   22.1   177.2            1     50          
1982-01-31 06   23.4   177.8            1     45          
1982-01-31 12   24.5   178.2            1     45          
1982-01-31 18   25.7   178.6            1     40          
1982-02-01 00   27.2   178.7            1     40          
1982-02-01 06   28.7   178.4                  35          
1982-02-01 12   30.2   177.9                  30          
1982-02-01 18   31.8   177.0                  25          
Winds are 1-min average.

Tropical cyclone tracks developed by Michael Bath using data from the Joint Typhoon Warning Centre Best Tracks and Google Maps.


[Australian Severe Weather index] [Copyright Notice] [Email Contacts] [Search This Site] [Privacy Policy]
Document: tropical_cyclone_hettie.htm Updated: 18 September 2016